sensor_id;sensor_type;location;lat;lon;timestamp;pressure;altitude;pressure_sealevel;temperature;humidity
26178;BME280;13924;47.670;10.310;2023-04-23T00:00:39;92720;;;12.3;100.0
26178;BME280;13924;47.670;10.310;2023-04-23T00:15:40;92730;;;12.3;100.0
26178;BME280;13924;47.670;10.310;2023-04-23T00:30:39;92710;;;12.2;100.0
26178;BME280;13924;47.670;10.310;2023-04-23T00:45:40;92720;;;12.4;100.0
26178;BME280;13924;47.670;10.310;2023-04-23T01:00:45;92750;;;11.9;100.0
26178;BME280;13924;47.670;10.310;2023-04-23T01:01:27;92750;;;11.9;100.0
26178;BME280;13924;47.670;10.310;2023-04-23T01:15:44;92790;;;11.6;100.0
26178;BME280;13924;47.670;10.310;2023-04-23T01:30:44;92900;;;11.3;100.0
26178;BME280;13924;47.670;10.310;2023-04-23T01:45:43;92830;;;11.3;100.0
26178;BME280;13924;47.670;10.310;2023-04-23T02:00:44;92800;;;11.7;100.0
26178;BME280;13924;47.670;10.310;2023-04-23T02:15:48;92920;;;11.2;100.0
26178;BME280;13924;47.670;10.310;2023-04-23T02:30:45;92930;;;11.4;100.0
26178;BME280;13924;47.670;10.310;2023-04-23T02:45:46;92910;;;11.4;100.0
26178;BME280;13924;47.670;10.310;2023-04-23T03:00:46;93200;;;10.7;100.0
26178;BME280;13924;47.670;10.310;2023-04-23T03:15:47;93280;;;10.8;100.0
26178;BME280;13924;47.670;10.310;2023-04-23T03:30:47;93340;;;10.4;100.0
26178;BME280;13924;47.670;10.310;2023-04-23T03:45:48;93360;;;10.5;100.0
26178;BME280;13924;47.670;10.310;2023-04-23T04:00:49;93450;;;10.8;100.0
26178;BME280;13924;47.670;10.310;2023-04-23T04:15:49;93450;;;10.7;100.0
26178;BME280;13924;47.670;10.310;2023-04-23T04:30:50;93450;;;10.5;100.0
26178;BME280;13924;47.670;10.310;2023-04-23T04:31:57;93450;;;10.5;100.0
26178;BME280;13924;47.670;10.310;2023-04-23T04:46:56;93460;;;10.4;100.0
26178;BME280;13924;47.670;10.310;2023-04-23T05:01:57;93460;;;10.9;100.0
26178;BME280;13924;47.670;10.310;2023-04-23T05:16:58;93460;;;10.9;100.0
26178;BME280;13924;47.670;10.310;2023-04-23T05:31:58;93440;;;10.6;100.0
26178;BME280;13924;47.670;10.310;2023-04-23T05:46:59;93460;;;10.5;100.0
26178;BME280;13924;47.670;10.310;2023-04-23T06:02:01;93470;;;10.5;100.0
26178;BME280;13924;47.670;10.310;2023-04-23T06:17:00;93460;;;10.4;100.0
26178;BME280;13924;47.670;10.310;2023-04-23T06:32:09;93460;;;10.4;100.0
26178;BME280;13924;47.670;10.310;2023-04-23T06:47:08;93430;;;10.6;100.0
26178;BME280;13924;47.670;10.310;2023-04-23T07:02:04;93410;;;11.1;100.0
26178;BME280;13924;47.670;10.310;2023-04-23T07:32:04;93200;;;10.6;100.0
26178;BME280;13924;47.670;10.310;2023-04-23T07:47:06;93220;;;10.8;100.0
26178;BME280;13924;47.670;10.310;2023-04-23T08:02:07;93150;;;11.3;100.0
26178;BME280;13924;47.670;10.310;2023-04-23T08:17:06;93220;;;11.7;100.0
26178;BME280;13924;47.670;10.310;2023-04-23T08:32:07;93050;;;12.1;100.0
26178;BME280;13924;47.670;10.310;2023-04-23T08:47:10;93010;;;12.0;100.0
26178;BME280;13924;47.670;10.310;2023-04-23T09:02:09;93020;;;12.6;100.0
26178;BME280;13924;47.670;10.310;2023-04-23T09:17:09;92820;;;13.1;100.0
26178;BME280;13924;47.670;10.310;2023-04-23T09:32:10;92700;;;14.6;100.0
26178;BME280;13924;47.670;10.310;2023-04-23T09:47:10;92660;;;14.9;100.0
26178;BME280;13924;47.670;10.310;2023-04-23T10:02:11;92630;;;15.6;100.0
26178;BME280;13924;47.670;10.310;2023-04-23T10:17:12;92600;;;16.7;100.0
26178;BME280;13924;47.670;10.310;2023-04-23T10:32:14;92590;;;17.1;100.0
26178;BME280;13924;47.670;10.310;2023-04-23T10:47:15;92570;;;18.5;100.0
26178;BME280;13924;47.670;10.310;2023-04-23T11:02:14;92560;;;17.7;100.0
26178;BME280;13924;47.670;10.310;2023-04-23T11:17:16;92550;;;17.7;100.0
26178;BME280;13924;47.670;10.310;2023-04-23T11:32:18;92540;;;18.3;100.0
26178;BME280;13924;47.670;10.310;2023-04-23T11:47:18;92520;;;17.3;100.0
26178;BME280;13924;47.670;10.310;2023-04-23T12:02:17;92490;;;17.2;100.0
26178;BME280;13924;47.670;10.310;2023-04-23T12:17:16;92470;;;16.6;100.0
26178;BME280;13924;47.670;10.310;2023-04-23T12:32:18;92460;;;17.1;100.0
26178;BME280;13924;47.670;10.310;2023-04-23T12:47:18;92450;;;17.5;100.0
26178;BME280;13924;47.670;10.310;2023-04-23T13:02:18;92430;;;18.3;100.0
26178;BME280;13924;47.670;10.310;2023-04-23T13:17:20;92400;;;20.1;100.0
26178;BME280;13924;47.670;10.310;2023-04-23T13:32:21;92390;;;19.4;100.0
26178;BME280;13924;47.670;10.310;2023-04-23T13:47:22;92360;;;19.8;100.0
26178;BME280;13924;47.670;10.310;2023-04-23T14:02:23;92340;;;21.6;100.0
26178;BME280;13924;47.670;10.310;2023-04-23T14:17:22;92330;;;22.9;96.5
26178;BME280;13924;47.670;10.310;2023-04-23T14:32:23;92300;;;24.1;81.2
26178;BME280;13924;47.670;10.310;2023-04-23T14:47:25;92280;;;23.2;87.0
26178;BME280;13924;47.670;10.310;2023-04-23T15:02:24;92270;;;21.8;98.5
26178;BME280;13924;47.670;10.310;2023-04-23T15:17:25;92260;;;22.2;79.9
26178;BME280;13924;47.670;10.310;2023-04-23T15:32:25;92250;;;21.0;100.0
26178;BME280;13924;47.670;10.310;2023-04-23T15:47:26;92250;;;21.0;100.0
26178;BME280;13924;47.670;10.310;2023-04-23T16:02:30;92260;;;17.1;100.0
26178;BME280;13924;47.670;10.310;2023-04-23T16:17:27;92260;;;16.7;100.0
26178;BME280;13924;47.670;10.310;2023-04-23T16:32:28;92270;;;16.2;100.0
26178;BME280;13924;47.670;10.310;2023-04-23T18:02:32;92960;;;11.3;100.0
26178;BME280;13924;47.670;10.310;2023-04-23T18:17:32;92930;;;11.6;100.0
26178;BME280;13924;47.670;10.310;2023-04-23T18:32:36;92900;;;11.4;100.0
26178;BME280;13924;47.670;10.310;2023-04-23T18:47:41;92690;;;11.1;100.0
26178;BME280;13924;47.670;10.310;2023-04-23T19:02:36;92690;;;11.1;100.0
26178;BME280;13924;47.670;10.310;2023-04-23T19:17:41;92870;;;11.0;100.0
26178;BME280;13924;47.670;10.310;2023-04-23T19:32:36;92890;;;10.9;100.0
26178;BME280;13924;47.670;10.310;2023-04-23T19:47:38;92960;;;10.8;100.0
26178;BME280;13924;47.670;10.310;2023-04-23T20:02:39;92780;;;11.0;100.0
26178;BME280;13924;47.670;10.310;2023-04-23T20:17:39;92860;;;10.8;100.0
26178;BME280;13924;47.670;10.310;2023-04-23T20:59:22;92820;;;10.2;100.0
26178;BME280;13924;47.670;10.310;2023-04-23T21:02:41;92830;;;10.0;100.0
26178;BME280;13924;47.670;10.310;2023-04-23T21:17:42;92930;;;9.6;100.0
26178;BME280;13924;47.670;10.310;2023-04-23T21:32:42;93110;;;9.4;100.0
26178;BME280;13924;47.670;10.310;2023-04-23T21:47:44;93110;;;9.4;100.0
26178;BME280;13924;47.670;10.310;2023-04-23T22:00:41;93010;;;9.0;100.0
26178;BME280;13924;47.670;10.310;2023-04-23T22:15:37;92950;;;8.8;100.0
26178;BME280;13924;47.670;10.310;2023-04-23T22:30:39;92950;;;8.8;100.0
26178;BME280;13924;47.670;10.310;2023-04-23T22:45:38;92930;;;8.6;100.0
26178;BME280;13924;47.670;10.310;2023-04-23T23:00:38;92910;;;8.4;100.0
26178;BME280;13924;47.670;10.310;2023-04-23T23:15:38;92800;;;8.3;100.0
26178;BME280;13924;47.670;10.310;2023-04-23T23:30:39;92820;;;8.1;100.0
26178;BME280;13924;47.670;10.310;2023-04-23T23:45:40;92900;;;7.8;100.0
